Time;durP1;ratioP1;P1;durP2;ratioP2;P2;SDS_P1;SDS_P2;PMS_P1;PMS_P2;Temp;Humidity;BMP_temperature;BMP_pressure;BME280_temperature;BME280_humidity;BME280_pressure;Samples;Min_cycle;Max_cycle;Signal;HPM_P1;HPM_P2
2021/05/26 00:00:25;;;;;;;2.20;2.00;;;13.70;66.50;;;;;;5036393;28;20206;-87
2021/05/26 00:02:50;;;;;;;2.67;2.03;;;13.70;66.40;;;;;;5053218;28;20202;-87
2021/05/26 00:05:16;;;;;;;3.03;1.70;;;13.70;67.80;;;;;;5036583;28;20201;-88
2021/05/26 00:07:42;;;;;;;2.30;2.10;;;13.70;67.50;;;;;;5055537;28;20252;-88
2021/05/26 00:10:08;;;;;;;4.87;2.73;;;13.80;67.10;;;;;;5056365;28;20233;-88
2021/05/26 00:12:34;;;;;;;1.80;1.70;;;13.70;66.60;;;;;;5038375;28;20196;-88
2021/05/26 00:15:00;;;;;;;4.83;2.47;;;13.70;66.30;;;;;;5058014;28;20231;-89
2021/05/26 00:17:27;;;;;;;3.73;1.90;;;13.70;65.60;;;;;;5056132;28;20203;-89
2021/05/26 00:19:53;;;;;;;2.20;1.90;;;13.70;65.30;;;;;;5057135;28;20207;-89
2021/05/26 00:22:19;;;;;;;2.13;1.90;;;13.70;64.40;;;;;;5058308;28;20185;-88
2021/05/26 00:24:44;;;;;;;2.30;2.10;;;13.70;63.20;;;;;;5041221;28;20184;-90
2021/05/26 00:27:10;;;;;;;2.73;1.90;;;13.60;62.60;;;;;;5063655;28;20615;-87
2021/05/26 00:29:36;;;;;;;2.53;1.80;;;13.50;64.00;;;;;;5069664;28;20224;-89
2021/05/26 00:32:01;;;;;;;2.10;1.90;;;13.50;65.80;;;;;;5067337;28;20184;-84
2021/05/26 00:34:27;;;;;;;1.97;1.87;;;13.60;63.70;;;;;;5049618;28;20183;-88
2021/05/26 00:36:53;;;;;;;2.70;1.90;;;13.60;64.10;;;;;;5052053;28;20192;-86
2021/05/26 00:39:18;;;;;;;2.73;1.90;;;13.60;63.90;;;;;;5065030;28;20296;-85
2021/05/26 00:41:44;;;;;;;3.30;2.30;;;13.60;64.00;;;;;;5094167;28;20181;-87
2021/05/26 00:44:14;;;;;;;3.47;2.23;;;13.60;64.10;;;;;;5076779;28;20172;-84
2021/05/26 00:46:45;;;;;;;6.03;2.20;;;13.50;64.00;;;;;;5095517;28;20231;-86
2021/05/26 00:49:10;;;;;;;3.90;2.20;;;13.40;64.10;;;;;;5086637;28;20203;-88
2021/05/26 00:51:37;;;;;;;2.23;1.87;;;13.20;65.50;;;;;;5075400;28;20183;-89
2021/05/26 00:54:03;;;;;;;1.77;1.67;;;13.10;65.80;;;;;;5061336;28;20291;-88
2021/05/26 00:56:29;;;;;;;2.30;1.93;;;13.00;66.50;;;;;;5056078;28;20187;-88
2021/05/26 00:58:55;;;;;;;2.10;1.90;;;13.00;66.80;;;;;;5077339;28;20226;-88
2021/05/26 01:01:21;;;;;;;3.53;1.97;;;12.90;67.50;;;;;;5090753;28;20187;-86
2021/05/26 01:03:46;;;;;;;2.63;1.90;;;12.90;67.50;;;;;;5083743;28;20194;-88
2021/05/26 01:06:12;;;;;;;4.00;2.00;;;12.80;67.90;;;;;;5070709;28;20202;-88
2021/05/26 01:08:38;;;;;;;2.57;2.00;;;12.90;66.60;;;;;;5056127;28;20187;-87
2021/05/26 01:11:04;;;;;;;1.70;1.60;;;12.90;67.50;;;;;;5057624;28;20637;-89
2021/05/26 01:13:31;;;;;;;2.90;1.60;;;12.80;67.50;;;;;;5055214;28;20180;-87
2021/05/26 01:15:57;;;;;;;3.10;2.10;;;12.80;67.50;;;;;;5058984;28;20184;-89
2021/05/26 01:18:30;;;;;;;3.77;2.10;;;12.90;66.60;;;;;;5060431;28;20269;-88
2021/05/26 01:20:59;;;;;;;2.23;1.67;;;12.90;66.70;;;;;;5079152;28;20179;-88
2021/05/26 01:23:25;;;;;;;3.27;1.67;;;12.90;66.70;;;;;;5061433;28;20175;-87
2021/05/26 01:25:55;;;;;;;2.10;1.90;;;12.90;66.50;;;;;;5078879;28;20205;-88
2021/05/26 01:28:22;;;;;;;2.33;1.80;;;12.90;66.20;;;;;;5079806;28;20172;-87
2021/05/26 01:30:49;;;;;;;2.00;1.67;;;12.90;65.80;;;;;;5078835;28;20206;-88
2021/05/26 01:33:15;;;;;;;3.00;1.70;;;13.00;65.40;;;;;;5078122;28;20186;-88
2021/05/26 01:35:43;;;;;;;1.30;1.30;;;12.80;66.00;;;;;;5078455;28;20183;-88
2021/05/26 01:38:19;;;;;;;1.50;1.40;;;12.90;65.40;;;;;;5063256;28;20793;-88
2021/05/26 01:40:45;;;;;;;2.33;1.80;;;12.80;66.00;;;;;;5059171;28;20744;-88
2021/05/26 01:43:11;;;;;;;3.20;1.90;;;12.80;66.20;;;;;;5058022;28;20546;-87
2021/05/26 01:45:37;;;;;;;3.13;1.80;;;12.80;66.60;;;;;;5058750;28;20823;-87
2021/05/26 01:48:04;;;;;;;4.53;1.70;;;12.80;66.00;;;;;;5040467;28;20231;-86
2021/05/26 01:50:29;;;;;;;3.20;2.10;;;12.90;68.10;;;;;;5058076;28;20376;-88
2021/05/26 01:53:01;;;;;;;3.83;1.73;;;12.80;69.70;;;;;;5040222;28;20195;-89
2021/05/26 01:55:27;;;;;;;3.17;2.00;;;12.80;71.20;;;;;;5075235;28;20177;-88
2021/05/26 01:57:53;;;;;;;2.07;1.70;;;12.80;70.40;;;;;;5060327;28;20267;-88
2021/05/26 02:00:19;;;;;;;2.20;1.60;;;12.70;70.30;;;;;;5060403;28;20201;-88
2021/05/26 02:02:46;;;;;;;1.80;1.70;;;12.70;71.20;;;;;;5043640;28;20183;-88
2021/05/26 02:05:13;;;;;;;3.53;1.63;;;12.70;71.80;;;;;;5078024;28;20272;-89
2021/05/26 02:07:39;;;;;;;2.80;1.67;;;12.80;71.90;;;;;;5074318;28;20177;-88
2021/05/26 02:10:08;;;;;;;1.80;1.63;;;12.80;72.10;;;;;;5040127;28;20246;-88
2021/05/26 02:12:37;;;;;;;1.73;1.63;;;12.90;71.30;;;;;;5058019;28;20215;-87
2021/05/26 02:15:06;;;;;;;3.07;1.90;;;12.90;72.20;;;;;;5058450;28;20176;-89
2021/05/26 02:17:32;;;;;;;2.40;1.60;;;12.80;71.90;;;;;;5058295;28;20264;-87
2021/05/26 02:19:58;;;;;;;1.67;1.57;;;12.80;71.20;;;;;;5057941;28;20231;-87
2021/05/26 02:22:24;;;;;;;3.80;1.90;;;12.90;71.10;;;;;;5057534;28;20198;-89
2021/05/26 02:24:49;;;;;;;2.27;1.80;;;13.00;69.40;;;;;;5057548;28;20210;-89
2021/05/26 02:27:15;;;;;;;3.90;1.70;;;12.90;70.60;;;;;;5056410;28;20202;-88
2021/05/26 02:29:41;;;;;;;2.77;1.80;;;12.80;70.10;;;;;;5039795;28;20207;-88
2021/05/26 02:32:08;;;;;;;2.87;1.90;;;12.70;70.50;;;;;;5042458;28;20187;-89
2021/05/26 02:34:33;;;;;;;4.13;2.03;;;12.80;70.10;;;;;;5078041;28;20185;-89
2021/05/26 02:36:59;;;;;;;2.30;1.73;;;12.70;71.00;;;;;;5070675;28;20246;-88
2021/05/26 02:39:25;;;;;;;5.00;2.00;;;12.60;71.90;;;;;;5057191;28;20202;-88
2021/05/26 02:41:51;;;;;;;3.27;2.00;;;12.60;71.10;;;;;;5023289;28;20275;-88
2021/05/26 02:44:17;;;;;;;6.10;1.83;;;12.70;70.50;;;;;;5039752;28;20187;-87
2021/05/26 02:46:44;;;;;;;2.57;1.90;;;12.70;70.10;;;;;;5058493;28;20176;-88
2021/05/26 02:49:10;;;;;;;3.17;1.80;;;12.70;69.30;;;;;;5063666;28;20581;-88
2021/05/26 02:51:36;;;;;;;2.70;1.80;;;12.60;69.80;;;;;;5077753;28;20268;-88
2021/05/26 02:54:03;;;;;;;2.40;1.80;;;12.50;70.50;;;;;;5079589;28;20185;-85
2021/05/26 02:56:35;;;;;;;2.20;1.70;;;12.50;69.80;;;;;;5096349;28;20186;-85
2021/05/26 02:59:03;;;;;;;2.10;1.73;;;12.50;70.20;;;;;;5096788;28;20243;-86
2021/05/26 03:01:29;;;;;;;3.50;1.80;;;12.50;71.10;;;;;;5086842;28;20169;-88
2021/05/26 03:03:55;;;;;;;2.13;1.90;;;12.50;72.20;;;;;;5061020;28;20562;-85
2021/05/26 03:06:20;;;;;;;2.93;1.83;;;12.50;72.30;;;;;;5078719;28;20166;-85
2021/05/26 03:08:46;;;;;;;3.60;1.90;;;12.40;71.80;;;;;;5040887;28;20193;-88
2021/05/26 03:11:11;;;;;;;3.03;1.60;;;12.40;75.50;;;;;;5056505;28;20184;-87
2021/05/26 03:13:37;;;;;;;1.93;1.70;;;12.30;75.00;;;;;;5057197;28;20187;-88
2021/05/26 03:16:03;;;;;;;2.10;1.77;;;12.30;75.40;;;;;;5040837;28;20194;-88
2021/05/26 03:18:29;;;;;;;4.83;2.10;;;12.20;74.90;;;;;;5075878;28;20205;-88
2021/05/26 03:20:55;;;;;;;1.90;1.57;;;12.20;76.20;;;;;;5076687;28;20200;-88
2021/05/26 03:23:21;;;;;;;4.47;1.93;;;12.20;76.40;;;;;;5075781;28;20696;-87
2021/05/26 03:25:47;;;;;;;3.10;1.87;;;12.30;75.60;;;;;;5058343;28;20194;-89
2021/05/26 03:29:14;;;;;;;5.07;1.93;;;12.30;76.00;;;;;;5090055;22;22021;-90
2021/05/26 03:31:40;;;;;;;4.10;2.00;;;12.30;75.40;;;;;;4961831;28;20209;-90
2021/05/26 03:34:08;;;;;;;2.00;1.80;;;12.40;76.30;;;;;;4980046;28;20194;-90
2021/05/26 03:36:37;;;;;;;4.27;1.80;;;12.30;76.80;;;;;;5022809;28;20724;-91
2021/05/26 03:39:04;;;;;;;5.27;2.00;;;12.20;77.00;;;;;;5079993;28;20220;-90
2021/05/26 03:41:30;;;;;;;1.90;1.60;;;12.20;76.90;;;;;;5070211;28;20187;-90
2021/05/26 03:43:56;;;;;;;2.80;2.10;;;12.20;76.60;;;;;;5067573;28;20173;-90
2021/05/26 03:46:21;;;;;;;6.60;2.23;;;12.20;78.20;;;;;;5082070;28;20184;-89
2021/05/26 03:48:47;;;;;;;3.90;2.23;;;12.10;79.90;;;;;;5064155;28;20739;-89
2021/05/26 03:51:13;;;;;;;3.27;2.57;;;12.00;81.70;;;;;;5082908;28;20419;-91
2021/05/26 03:53:44;;;;;;;3.27;1.90;;;11.90;83.10;;;;;;5056308;28;20188;-93
2021/05/26 03:56:10;;;;;;;3.03;2.00;;;11.70;84.90;;;;;;5061002;28;20160;-93
2021/05/26 03:58:37;;;;;;;4.00;2.53;;;11.60;87.40;;;;;;5061930;28;20215;-96
2021/05/26 04:01:06;;;;;;;3.47;2.40;;;11.40;88.80;;;;;;5077247;28;20191;-92
2021/05/26 04:03:45;;;;;;;3.97;2.13;;;11.20;90.50;;;;;;5074041;28;20272;-93
2021/05/26 04:06:13;;;;;;;4.80;2.37;;;11.20;90.80;;;;;;5097240;28;20167;-92
2021/05/26 04:08:39;;;;;;;3.97;2.23;;;11.20;91.20;;;;;;5079176;28;20174;-94
2021/05/26 04:11:05;;;;;;;4.40;2.30;;;11.10;91.20;;;;;;5096518;28;20171;-92
2021/05/26 04:13:31;;;;;;;5.07;2.40;;;11.10;91.60;;;;;;5060407;28;20168;-91
2021/05/26 04:16:09;;;;;;;2.73;2.30;;;11.10;92.50;;;;;;5059071;28;20194;-94
2021/05/26 04:18:38;;;;;;;4.83;2.30;;;11.10;92.90;;;;;;5066482;28;20231;-93
2021/05/26 04:21:05;;;;;;;2.77;1.70;;;11.00;92.80;;;;;;5073723;28;20184;-93
2021/05/26 04:23:37;;;;;;;3.83;2.00;;;11.00;93.90;;;;;;5055885;28;20200;-93
2021/05/26 04:26:07;;;;;;;8.27;2.60;;;11.10;93.10;;;;;;5053948;28;20192;-92
2021/05/26 04:28:33;;;;;;;3.70;2.20;;;11.00;93.20;;;;;;5039117;28;20580;-94
2021/05/26 04:31:14;;;;;;;5.77;1.93;;;11.10;93.50;;;;;;5050049;28;20176;-92
2021/05/26 04:33:40;;;;;;;2.10;1.90;;;11.00;93.50;;;;;;5058494;28;20203;-90
2021/05/26 04:36:09;;;;;;;5.67;2.53;;;10.90;94.80;;;;;;5066448;28;20180;-92
2021/05/26 04:38:35;;;;;;;4.20;1.83;;;10.80;95.80;;;;;;5061280;28;20208;-90
2021/05/26 04:41:02;;;;;;;2.90;2.20;;;10.80;95.80;;;;;;5061032;28;20179;-90
2021/05/26 04:43:29;;;;;;;3.17;1.90;;;10.80;96.10;;;;;;5047286;28;20204;-90
2021/05/26 04:45:56;;;;;;;3.07;1.83;;;10.80;95.30;;;;;;5026571;28;20184;-90
2021/05/26 04:48:22;;;;;;;3.97;2.10;;;10.90;95.20;;;;;;5043691;28;20197;-90
2021/05/26 04:50:48;;;;;;;4.90;2.00;;;10.80;95.70;;;;;;5037189;28;20180;-91
2021/05/26 04:53:14;;;;;;;3.80;2.00;;;10.80;95.80;;;;;;5075921;28;20196;-90
2021/05/26 04:55:40;;;;;;;4.83;2.40;;;10.90;96.00;;;;;;5081060;28;20175;-92
2021/05/26 04:58:07;;;;;;;4.57;2.40;;;10.70;95.90;;;;;;5059451;28;20259;-90
2021/05/26 05:00:34;;;;;;;2.60;2.00;;;10.70;96.80;;;;;;5077938;28;20172;-92
2021/05/26 05:03:00;;;;;;;5.77;2.40;;;10.70;97.20;;;;;;5082486;28;20195;-90
2021/05/26 05:05:32;;;;;;;3.80;2.13;;;10.70;98.10;;;;;;5081831;28;20190;-91
2021/05/26 05:08:01;;;;;;;4.27;2.20;;;10.70;97.70;;;;;;5079974;28;20229;-92
2021/05/26 05:10:27;;;;;;;4.77;2.37;;;10.70;96.70;;;;;;5075572;28;20200;-92
2021/05/26 05:12:53;;;;;;;7.07;2.27;;;10.70;97.10;;;;;;5050794;28;20220;-93
2021/05/26 05:15:19;;;;;;;3.13;2.20;;;10.80;97.50;;;;;;5054086;28;20286;-91
2021/05/26 05:17:51;;;;;;;3.53;1.90;;;10.80;96.20;;;;;;5067876;28;20216;-91
2021/05/26 05:20:21;;;;;;;6.43;2.60;;;10.80;96.70;;;;;;5070611;28;20179;-93
2021/05/26 05:22:47;;;;;;;3.63;1.90;;;10.80;97.20;;;;;;5056816;28;20203;-93
2021/05/26 05:25:14;;;;;;;4.37;2.03;;;10.70;98.20;;;;;;5072423;28;20244;-92
2021/05/26 05:27:39;;;;;;;2.03;1.77;;;10.60;97.00;;;;;;5071298;28;20199;-90
2021/05/26 05:30:06;;;;;;;5.33;2.33;;;10.60;97.70;;;;;;5038411;28;20196;-89
2021/05/26 05:32:32;;;;;;;4.93;2.40;;;10.70;98.10;;;;;;5046307;28;20207;-92
2021/05/26 05:34:58;;;;;;;4.40;2.43;;;10.70;97.70;;;;;;5040740;28;20184;-92
2021/05/26 05:37:24;;;;;;;4.13;1.83;;;10.70;97.70;;;;;;5072916;28;20702;-91
2021/05/26 05:39:51;;;;;;;2.43;2.23;;;10.70;97.90;;;;;;5072897;28;20176;-92
2021/05/26 05:42:17;;;;;;;4.53;2.23;;;10.60;98.50;;;;;;5067716;28;20195;-93
2021/05/26 05:44:43;;;;;;;3.60;2.07;;;10.60;99.80;;;;;;5050246;28;20188;-93
2021/05/26 05:47:09;;;;;;;3.37;2.40;;;10.60;99.30;;;;;;5051067;28;20245;-95
2021/05/26 05:49:35;;;;;;;5.00;2.43;;;10.70;98.80;;;;;;5062110;28;20537;-94
2021/05/26 05:52:00;;;;;;;4.07;2.33;;;10.70;99.30;;;;;;5040181;28;20746;-92
2021/05/26 05:54:36;;;;;;;4.13;2.53;;;10.70;98.20;;;;;;5043772;28;20234;-95
2021/05/26 05:57:03;;;;;;;3.50;2.50;;;10.70;98.60;;;;;;5059325;28;20337;-93
2021/05/26 05:59:28;;;;;;;2.97;2.17;;;10.80;98.80;;;;;;5068265;28;20230;-95
2021/05/26 06:01:54;;;;;;;2.20;1.90;;;10.80;98.10;;;;;;5042860;28;20246;-92
2021/05/26 06:04:20;;;;;;;2.77;2.37;;;10.80;99.10;;;;;;5040431;28;20199;-93
2021/05/26 06:06:48;;;;;;;5.27;2.37;;;10.70;99.10;;;;;;5057543;28;20196;-93
2021/05/26 06:09:14;;;;;;;4.47;2.40;;;10.80;99.60;;;;;;5041557;28;20202;-93
2021/05/26 06:11:40;;;;;;;5.13;2.63;;;10.70;98.40;;;;;;5038721;28;20204;-92
2021/05/26 06:14:07;;;;;;;4.33;2.03;;;10.70;99.20;;;;;;5077822;28;20183;-93
2021/05/26 06:16:33;;;;;;;6.77;2.80;;;10.80;98.90;;;;;;5077334;28;20179;-92
2021/05/26 06:18:59;;;;;;;4.23;2.50;;;10.70;99.90;;;;;;5077310;28;20572;-95
2021/05/26 06:21:27;;;;;;;3.53;2.20;;;10.70;99.70;;;;;;5077948;28;20191;-93
2021/05/26 06:23:53;;;;;;;3.87;2.53;;;10.80;99.80;;;;;;5044187;28;20179;-96
2021/05/26 06:26:18;;;;;;;5.43;2.40;;;10.80;99.90;;;;;;5078852;28;21001;-94
2021/05/26 06:28:44;;;;;;;4.93;2.47;;;10.80;99.30;;;;;;5040507;28;20980;-95
2021/05/26 06:31:10;;;;;;;5.27;2.40;;;10.80;99.50;;;;;;5053270;28;20213;-93
2021/05/26 06:33:36;;;;;;;5.47;2.50;;;10.80;99.60;;;;;;5033593;28;20191;-91
2021/05/26 06:36:02;;;;;;;4.37;2.33;;;10.90;98.90;;;;;;5067353;28;20247;-90
2021/05/26 06:38:28;;;;;;;4.40;2.23;;;10.90;97.70;;;;;;5068816;28;20203;-93
2021/05/26 06:40:53;;;;;;;3.77;2.20;;;10.90;97.40;;;;;;5059884;28;20225;-90
2021/05/26 06:53:41;;;;;;;4.33;2.33;;;10.80;99.00;;;;;;5076362;28;20214;-95
2021/05/26 06:56:06;;;;;;;5.47;2.60;;;10.80;99.40;;;;;;5061866;28;20731;-92
2021/05/26 06:58:35;;;;;;;3.97;2.40;;;10.80;98.90;;;;;;5062495;28;20219;-93
2021/05/26 07:01:33;;;;;;;6.83;2.57;;;10.80;97.70;;;;;;5064198;28;20240;-92
2021/05/26 07:04:00;;;;;;;4.03;2.23;;;10.70;97.20;;;;;;5030652;28;20536;-94
2021/05/26 07:06:29;;;;;;;3.83;2.23;;;10.70;98.10;;;;;;5040475;28;20179;-94
2021/05/26 07:09:18;;;;;;;2.97;2.50;;;10.80;98.70;;;;;;5037860;28;20248;-94
2021/05/26 07:15:13;;;;;;;4.23;1.83;;;10.80;97.40;;;;;;5044893;28;20664;-94
2021/05/26 07:17:39;;;;;;;3.53;2.20;;;10.80;96.70;;;;;;5045628;28;20744;-94
2021/05/26 07:20:08;;;;;;;5.57;2.37;;;10.90;96.60;;;;;;5064015;28;20603;-94
2021/05/26 07:22:40;;;;;;;6.57;2.47;;;10.90;95.70;;;;;;5045871;28;20199;-95
2021/05/26 07:25:09;;;;;;;4.40;2.30;;;10.90;97.30;;;;;;5044173;28;20180;-92
2021/05/26 07:27:35;;;;;;;4.60;2.33;;;10.90;97.10;;;;;;5043800;28;20184;-93
2021/05/26 07:30:01;;;;;;;4.77;2.40;;;10.90;97.30;;;;;;5043999;28;20631;-94
2021/05/26 07:32:26;;;;;;;4.57;2.43;;;10.90;98.50;;;;;;5042119;28;20207;-94
2021/05/26 07:34:52;;;;;;;3.87;2.60;;;11.00;99.00;;;;;;5043617;28;20199;-93
2021/05/26 07:37:18;;;;;;;6.10;2.33;;;11.10;97.60;;;;;;5030086;28;20270;-94
2021/05/26 07:39:44;;;;;;;5.40;2.40;;;11.00;96.10;;;;;;5063992;28;20176;-93
2021/05/26 07:42:14;;;;;;;5.43;2.57;;;11.00;96.40;;;;;;5064625;28;20192;-93
2021/05/26 07:44:40;;;;;;;4.67;2.20;;;11.10;96.70;;;;;;5062892;28;20177;-94
2021/05/26 07:47:07;;;;;;;2.93;2.20;;;11.10;98.30;;;;;;5044380;28;20184;-94
2021/05/26 07:49:32;;;;;;;4.07;2.60;;;11.00;97.60;;;;;;5044947;28;20284;-93
2021/05/26 07:52:12;;;;;;;5.27;2.80;;;11.10;97.50;;;;;;5061236;28;20211;-93
2021/05/26 07:54:38;;;;;;;3.50;2.20;;;11.10;98.00;;;;;;5054939;28;20202;-93
2021/05/26 07:57:05;;;;;;;4.13;2.30;;;11.10;97.50;;;;;;5044648;28;20192;-92
2021/05/26 07:59:31;;;;;;;5.03;2.50;;;11.10;97.60;;;;;;5064682;28;20180;-92
2021/05/26 08:01:57;;;;;;;3.77;2.47;;;11.10;96.90;;;;;;5050471;28;20477;-92
2021/05/26 08:04:22;;;;;;;7.30;2.00;;;11.00;96.40;;;;;;5046699;28;20632;-93
2021/05/26 08:07:27;;;;;;;3.83;2.10;;;10.90;92.40;;;;;;5041416;28;20664;-94
2021/05/26 08:09:52;;;;;;;4.87;2.40;;;11.00;95.70;;;;;;4959686;29;20183;-94
2021/05/26 08:12:19;;;;;;;5.20;2.60;;;10.90;96.00;;;;;;4959097;29;20234;-92
2021/05/26 08:14:45;;;;;;;4.90;3.03;;;11.00;95.50;;;;;;5005895;28;20194;-93
2021/05/26 08:17:10;;;;;;;2.80;2.00;;;11.00;95.90;;;;;;5025727;28;20180;-93
2021/05/26 08:19:36;;;;;;;3.17;2.20;;;11.10;95.70;;;;;;5060502;28;20595;-93
2021/05/26 08:22:02;;;;;;;3.40;2.20;;;11.10;96.10;;;;;;5042743;28;20203;-92
2021/05/26 08:24:28;;;;;;;5.67;2.37;;;11.10;96.40;;;;;;5058178;28;20525;-92
2021/05/26 08:26:54;;;;;;;2.93;2.20;;;11.10;94.60;;;;;;5060793;28;20187;-93
2021/05/26 08:29:20;;;;;;;6.57;2.30;;;11.10;94.30;;;;;;5041033;28;20204;-93
2021/05/26 08:31:46;;;;;;;3.20;2.00;;;11.10;93.90;;;;;;5074809;28;20275;-92
2021/05/26 08:34:12;;;;;;;4.50;2.50;;;11.00;92.70;;;;;;5073891;28;20191;-93
2021/05/26 08:36:38;;;;;;;3.03;2.20;;;11.10;94.40;;;;;;5058340;28;20248;-92
2021/05/26 08:39:12;;;;;;;6.67;3.10;;;11.20;94.10;;;;;;5030474;28;20223;-93
2021/05/26 08:41:44;;;;;;;3.63;2.40;;;11.20;94.00;;;;;;5025459;28;20203;-93
2021/05/26 08:44:13;;;;;;;5.97;2.70;;;11.20;92.40;;;;;;5012208;28;20192;-93
2021/05/26 08:46:41;;;;;;;6.93;2.60;;;11.20;94.80;;;;;;5043784;28;20184;-92
2021/05/26 08:49:09;;;;;;;6.17;2.87;;;11.10;94.90;;;;;;5060786;28;20176;-92
2021/05/26 08:51:34;;;;;;;4.63;2.50;;;11.20;94.80;;;;;;5043882;28;20215;-94
2021/05/26 08:54:01;;;;;;;5.43;2.90;;;11.30;97.10;;;;;;5061391;28;20196;-93
2021/05/26 08:56:27;;;;;;;5.43;2.90;;;11.30;96.90;;;;;;5059869;28;20181;-94
2021/05/26 08:58:52;;;;;;;4.73;3.00;;;11.40;96.90;;;;;;5043188;28;20213;-94
2021/05/26 09:01:20;;;;;;;5.27;2.93;;;11.50;98.50;;;;;;5042543;28;20184;-94
2021/05/26 09:03:50;;;;;;;5.13;2.90;;;11.60;96.90;;;;;;5042438;28;20207;-94
2021/05/26 09:06:16;;;;;;;7.13;3.03;;;11.70;98.80;;;;;;5042762;28;20183;-93
2021/05/26 09:09:00;;;;;;;7.20;3.70;;;11.70;97.30;;;;;;5042450;28;20568;-95
2021/05/26 09:11:30;;;;;;;7.27;3.33;;;11.70;97.50;;;;;;5041542;28;20532;-95
2021/05/26 09:13:56;;;;;;;8.10;3.47;;;11.70;98.20;;;;;;5060040;28;20251;-94
2021/05/26 09:16:26;;;;;;;5.53;3.27;;;11.70;97.70;;;;;;5059534;28;20204;-94
2021/05/26 09:19:02;;;;;;;7.67;3.07;;;11.80;97.10;;;;;;5059522;28;20258;-94
2021/05/26 09:21:40;;;;;;;5.50;3.27;;;11.70;96.60;;;;;;5041195;28;20206;-94
2021/05/26 09:24:21;;;;;;;6.43;3.30;;;11.80;97.50;;;;;;5041105;28;20177;-94
2021/05/26 09:26:56;;;;;;;4.17;2.93;;;11.80;95.40;;;;;;5058302;28;20207;-93
2021/05/26 09:29:24;;;;;;;4.17;2.60;;;11.80;94.70;;;;;;5040924;28;20219;-95
2021/05/26 09:31:54;;;;;;;3.43;2.23;;;11.80;92.60;;;;;;5049731;28;20201;-95
2021/05/26 09:34:37;;;;;;;4.77;2.40;;;11.70;90.90;;;;;;5054350;28;20168;-95
2021/05/26 09:37:04;;;;;;;3.33;2.20;;;11.70;92.50;;;;;;5062148;28;20203;-95
2021/05/26 09:39:46;;;;;;;4.90;2.27;;;11.50;92.40;;;;;;5079390;28;20184;-96
2021/05/26 09:42:41;;;;;;;4.80;2.47;;;11.40;92.90;;;;;;5073716;28;20200;-94
2021/05/26 09:45:12;;;;;;;4.13;2.50;;;11.50;92.90;;;;;;5027471;28;20181;-94
2021/05/26 09:47:44;;;;;;;4.13;2.60;;;11.60;94.40;;;;;;5028254;28;20195;-93
2021/05/26 09:50:36;;;;;;;3.03;2.43;;;11.60;95.10;;;;;;5058327;28;20275;-94
2021/05/26 09:53:15;;;;;;;5.27;2.83;;;11.60;93.70;;;;;;5027822;28;20790;-94
2021/05/26 09:55:42;;;;;;;5.03;2.67;;;11.70;94.40;;;;;;5061277;28;20186;-93
2021/05/26 09:58:11;;;;;;;3.90;3.00;;;11.60;92.80;;;;;;5029290;28;20208;-94
2021/05/26 10:00:39;;;;;;;4.03;2.70;;;11.60;92.50;;;;;;5068892;28;20172;-95
2021/05/26 10:03:05;;;;;;;4.70;2.83;;;11.50;93.30;;;;;;5046159;28;20204;-92
2021/05/26 10:05:31;;;;;;;3.57;3.00;;;11.50;92.50;;;;;;5066470;28;20196;-92
2021/05/26 10:07:59;;;;;;;5.63;2.70;;;11.40;92.10;;;;;;5050187;28;20592;-92
2021/05/26 10:10:29;;;;;;;5.57;2.50;;;11.40;91.50;;;;;;5054229;28;20244;-94
2021/05/26 10:13:06;;;;;;;3.30;2.90;;;11.50;91.30;;;;;;5052477;28;20242;-92
2021/05/26 10:15:49;;;;;;;4.60;2.43;;;11.50;94.00;;;;;;5057655;28;20395;-92
2021/05/26 10:18:15;;;;;;;4.80;2.80;;;11.40;93.20;;;;;;5069851;28;20284;-91
2021/05/26 10:20:44;;;;;;;3.77;2.27;;;11.50;91.10;;;;;;5065169;28;20187;-90
2021/05/26 10:23:18;;;;;;;2.83;1.97;;;11.60;90.70;;;;;;5059766;28;20197;-89
2021/05/26 10:25:45;;;;;;;3.73;2.03;;;11.60;90.10;;;;;;5057571;28;20208;-92
2021/05/26 10:28:31;;;;;;;4.43;2.00;;;11.60;91.80;;;;;;5043941;28;20572;-91
2021/05/26 10:31:02;;;;;;;3.47;1.93;;;11.50;91.30;;;;;;5061423;28;20271;-92
2021/05/26 10:33:55;;;;;;;2.20;2.00;;;11.50;91.10;;;;;;5063110;28;20200;-93
2021/05/26 10:36:21;;;;;;;3.50;1.97;;;11.40;89.60;;;;;;5061599;28;20227;-92
2021/05/26 10:38:55;;;;;;;3.70;2.10;;;11.50;90.80;;;;;;5047295;28;20200;-89
2021/05/26 10:41:21;;;;;;;2.53;1.93;;;11.70;89.70;;;;;;5043734;28;20186;-90
2021/05/26 10:43:52;;;;;;;3.70;2.07;;;11.60;90.50;;;;;;5044738;28;20206;-90
2021/05/26 10:46:34;;;;;;;3.03;1.77;;;11.70;90.50;;;;;;5061419;28;20184;-89
2021/05/26 10:49:01;;;;;;;5.20;2.10;;;11.70;89.60;;;;;;5062226;28;20663;-89
2021/05/26 10:51:52;;;;;;;4.07;2.10;;;11.60;91.60;;;;;;5061825;28;20187;-90
2021/05/26 10:54:39;;;;;;;2.40;2.03;;;11.60;91.90;;;;;;5057794;28;20196;-88
2021/05/26 10:57:07;;;;;;;5.30;2.50;;;11.60;90.90;;;;;;5041677;28;20267;-90
2021/05/26 10:59:33;;;;;;;3.17;2.30;;;11.60;89.60;;;;;;5060585;28;20239;-90
2021/05/26 11:02:05;;;;;;;3.93;2.40;;;11.70;90.10;;;;;;5042929;28;20201;-90
2021/05/26 11:04:34;;;;;;;4.53;2.60;;;11.70;90.40;;;;;;5048574;28;20196;-93
2021/05/26 11:07:24;;;;;;;3.40;2.10;;;11.70;89.80;;;;;;5039409;28;20212;-96
2021/05/26 11:10:00;;;;;;;3.40;2.20;;;11.80;90.20;;;;;;5058593;28;20175;-94
2021/05/26 11:14:55;;;;;;;2.47;2.23;;;12.00;87.40;;;;;;5099663;28;20261;-91
2021/05/26 11:17:28;;;;;;;4.17;2.20;;;12.00;88.10;;;;;;5085599;28;20198;-91
2021/05/26 11:20:12;;;;;;;3.93;2.07;;;11.90;88.10;;;;;;5102491;28;20179;-92
2021/05/26 11:22:38;;;;;;;2.10;1.90;;;12.00;88.60;;;;;;5067070;28;20241;-91
2021/05/26 11:25:09;;;;;;;2.67;2.20;;;12.00;87.90;;;;;;5103036;28;20548;-91
2021/05/26 11:27:36;;;;;;;3.77;1.87;;;12.10;87.70;;;;;;5104320;28;20276;-91
2021/05/26 11:30:04;;;;;;;2.80;2.20;;;12.00;88.60;;;;;;5084891;28;20198;-91
2021/05/26 11:32:31;;;;;;;2.30;2.10;;;12.00;88.40;;;;;;5102380;28;20183;-91
2021/05/26 11:35:02;;;;;;;2.83;2.13;;;11.90;89.40;;;;;;5095784;28;20201;-92
2021/05/26 11:37:40;;;;;;;2.50;1.80;;;12.00;87.90;;;;;;5102321;28;20605;-92
2021/05/26 11:40:18;;;;;;;2.70;2.00;;;12.00;88.10;;;;;;5085994;28;20235;-90
2021/05/26 11:42:44;;;;;;;3.90;2.47;;;12.10;87.20;;;;;;5086009;28;20607;-92
2021/05/26 11:45:11;;;;;;;4.87;2.00;;;12.10;87.70;;;;;;5086174;28;20246;-91
2021/05/26 11:47:39;;;;;;;3.63;2.10;;;12.20;87.10;;;;;;5056608;28;20211;-90
2021/05/26 11:50:17;;;;;;;3.13;1.83;;;12.30;85.80;;;;;;5083203;28;20700;-91
2021/05/26 11:52:44;;;;;;;2.73;2.13;;;12.40;85.10;;;;;;5082575;28;20183;-92
2021/05/26 11:55:10;;;;;;;3.00;1.93;;;12.50;84.60;;;;;;5066129;28;20747;-91
2021/05/26 11:57:40;;;;;;;3.67;2.07;;;12.50;85.20;;;;;;5083770;28;20219;-91
2021/05/26 12:00:10;;;;;;;1.87;1.77;;;12.50;84.60;;;;;;5107598;28;20174;-90
2021/05/26 12:03:00;;;;;;;2.87;2.00;;;12.50;85.10;;;;;;5098695;28;20199;-91
2021/05/26 12:05:52;;;;;;;3.33;1.90;;;12.50;84.70;;;;;;5097349;28;20210;-91
2021/05/26 12:08:22;;;;;;;3.10;2.43;;;12.50;85.20;;;;;;5083284;28;20200;-91
2021/05/26 12:10:52;;;;;;;2.00;1.80;;;12.60;85.60;;;;;;5074597;28;20184;-92
2021/05/26 12:13:29;;;;;;;2.40;2.00;;;12.70;85.50;;;;;;5082125;28;20288;-91
2021/05/26 12:16:01;;;;;;;2.03;1.73;;;12.70;86.00;;;;;;5064676;28;20278;-92
2021/05/26 12:18:27;;;;;;;2.97;2.27;;;12.70;84.90;;;;;;5063462;28;20301;-91
2021/05/26 12:20:55;;;;;;;4.23;2.10;;;12.70;86.50;;;;;;5063914;28;20211;-92
2021/05/26 12:23:34;;;;;;;4.70;2.17;;;12.70;86.40;;;;;;5050848;28;20201;-91
2021/05/26 12:26:02;;;;;;;2.13;1.97;;;12.70;87.70;;;;;;5088819;28;20431;-91
2021/05/26 12:28:29;;;;;;;2.27;1.80;;;12.70;87.00;;;;;;5083414;28;20409;-92
2021/05/26 12:30:56;;;;;;;2.90;1.50;;;12.80;85.60;;;;;;5084017;28;20206;-91
2021/05/26 12:33:24;;;;;;;1.97;1.77;;;12.70;86.70;;;;;;5066828;28;20201;-91
2021/05/26 12:36:02;;;;;;;3.80;2.03;;;12.80;85.90;;;;;;5102287;28;20214;-92
2021/05/26 12:38:28;;;;;;;1.57;1.47;;;13.00;86.10;;;;;;5086690;28;20206;-92
2021/05/26 12:40:53;;;;;;;2.57;1.90;;;13.00;85.70;;;;;;5087947;28;20178;-89
2021/05/26 12:43:31;;;;;;;2.00;1.87;;;12.90;86.90;;;;;;5099575;28;20188;-90
2021/05/26 12:45:57;;;;;;;1.80;1.67;;;12.70;90.20;;;;;;5076378;28;20591;-93
2021/05/26 12:48:29;;;;;;;2.80;1.90;;;12.50;91.50;;;;;;5087693;28;20204;-93
2021/05/26 12:51:02;;;;;;;2.53;1.90;;;12.40;93.80;;;;;;5072036;28;20235;-92
2021/05/26 12:53:32;;;;;;;3.23;2.00;;;12.30;92.20;;;;;;5063437;28;20160;-91
2021/05/26 12:56:02;;;;;;;2.40;1.70;;;12.20;92.80;;;;;;5074398;28;20628;-91
2021/05/26 12:58:28;;;;;;;2.00;1.80;;;12.40;91.00;;;;;;5089647;28;20207;-92
2021/05/26 13:01:09;;;;;;;2.93;1.80;;;12.60;91.00;;;;;;5089836;28;20195;-92
2021/05/26 13:03:37;;;;;;;3.70;1.90;;;12.70;92.20;;;;;;5105216;28;20680;-92
2021/05/26 13:06:17;;;;;;;2.83;2.10;;;12.70;89.20;;;;;;5086329;28;20560;-91
2021/05/26 13:09:02;;;;;;;2.10;1.90;;;12.90;88.10;;;;;;5087242;28;20184;-92
2021/05/26 13:11:44;;;;;;;2.07;1.87;;;13.00;88.40;;;;;;5105343;28;20215;-92
2021/05/26 13:14:11;;;;;;;2.97;1.70;;;13.20;87.20;;;;;;5089092;28;20261;-92